Terminal Aerodrome Forecast
Issued by NWS Charleston, WV

Current Version | Previous Version | Text Only | Print | Product List | Glossary Off
Versions: 1 2 3 4 5 6 7 8 9 10 11 12 13 14 15 16 17 18 19 20 21 22 23 24 25 26 27 28

000
FTUS41 KRLX 220231 AAA
TAFHTS
TAF AMD
KHTS 220231Z 2203/2224 VRB02KT P6SM BKN070
     FM220600 00000KT P6SM -SHRA OVC040
     FM220800 00000KT 6SM -SHRA OVC025
     FM221000 15002KT 3SM -SHRA BR OVC015
     FM221400 14003KT 5SM BR OVC010
     FM221600 16005KT P6SM OVC020=

USA.gov is the U.S. government's official web portal to all federal, state and local government web resources and services.